sensor_id;sensor_type;location;lat;lon;timestamp;temperature;humidity
69206;SHT30;56319;48.920;2.332;2023-04-03T00:02:09;17.94;40.87
69206;SHT30;56319;48.920;2.332;2023-04-03T00:04:35;17.94;40.87
69206;SHT30;56319;48.920;2.332;2023-04-03T00:07:00;17.90;40.92
69206;SHT30;56319;48.920;2.332;2023-04-03T00:09:26;17.93;40.88
69206;SHT30;56319;48.920;2.332;2023-04-03T00:11:52;17.96;40.86
69206;SHT30;56319;48.920;2.332;2023-04-03T00:14:17;17.90;40.88
69206;SHT30;56319;48.920;2.332;2023-04-03T00:16:43;17.90;40.88
69206;SHT30;56319;48.920;2.332;2023-04-03T00:19:08;17.92;40.86
69206;SHT30;56319;48.920;2.332;2023-04-03T00:21:37;17.89;40.86
69206;SHT30;56319;48.920;2.332;2023-04-03T00:24:02;17.92;40.89
69206;SHT30;56319;48.920;2.332;2023-04-03T00:26:28;17.89;40.83
69206;SHT30;56319;48.920;2.332;2023-04-03T00:28:53;17.90;40.85
69206;SHT30;56319;48.920;2.332;2023-04-03T00:31:19;17.87;40.86
69206;SHT30;56319;48.920;2.332;2023-04-03T00:33:45;17.92;40.82
69206;SHT30;56319;48.920;2.332;2023-04-03T00:36:12;17.87;40.82
69206;SHT30;56319;48.920;2.332;2023-04-03T00:38:37;17.90;40.83
69206;SHT30;56319;48.920;2.332;2023-04-03T00:41:03;17.87;40.81
69206;SHT30;56319;48.920;2.332;2023-04-03T00:43:29;17.87;40.85
69206;SHT30;56319;48.920;2.332;2023-04-03T00:45:56;17.86;40.82
69206;SHT30;56319;48.920;2.332;2023-04-03T00:48:28;17.86;40.81
69206;SHT30;56319;48.920;2.332;2023-04-03T00:50:54;17.86;40.81
69206;SHT30;56319;48.920;2.332;2023-04-03T00:53:25;17.86;40.86
69206;SHT30;56319;48.920;2.332;2023-04-03T00:55:54;17.86;40.84
69206;SHT30;56319;48.920;2.332;2023-04-03T00:58:24;17.85;40.79
69206;SHT30;56319;48.920;2.332;2023-04-03T01:00:54;17.83;40.80
69206;SHT30;56319;48.920;2.332;2023-04-03T01:03:23;17.83;40.81
69206;SHT30;56319;48.920;2.332;2023-04-03T01:05:49;17.83;40.78
69206;SHT30;56319;48.920;2.332;2023-04-03T01:08:15;17.85;40.83
69206;SHT30;56319;48.920;2.332;2023-04-03T01:10:41;17.83;40.79
69206;SHT30;56319;48.920;2.332;2023-04-03T01:13:29;17.82;40.83
69206;SHT30;56319;48.920;2.332;2023-04-03T01:15:55;17.82;40.79
69206;SHT30;56319;48.920;2.332;2023-04-03T01:18:23;17.79;40.76
69206;SHT30;56319;48.920;2.332;2023-04-03T01:24:21;17.81;40.80
69206;SHT30;56319;48.920;2.332;2023-04-03T01:26:48;17.79;40.80
69206;SHT30;56319;48.920;2.332;2023-04-03T01:29:14;17.81;40.73
69206;SHT30;56319;48.920;2.332;2023-04-03T01:31:46;17.79;40.80
69206;SHT30;56319;48.920;2.332;2023-04-03T01:34:12;17.78;40.77
69206;SHT30;56319;48.920;2.332;2023-04-03T01:36:37;17.79;40.81
69206;SHT30;56319;48.920;2.332;2023-04-03T01:39:03;17.78;40.73
69206;SHT30;56319;48.920;2.332;2023-04-03T01:41:29;17.78;40.76
69206;SHT30;56319;48.920;2.332;2023-04-03T01:43:54;17.79;40.77
69206;SHT30;56319;48.920;2.332;2023-04-03T01:46:20;17.76;40.74
69206;SHT30;56319;48.920;2.332;2023-04-03T01:48:46;17.74;40.79
69206;SHT30;56319;48.920;2.332;2023-04-03T01:51:11;17.78;40.80
69206;SHT30;56319;48.920;2.332;2023-04-03T01:53:37;17.74;40.76
69206;SHT30;56319;48.920;2.332;2023-04-03T01:56:03;17.74;40.74
69206;SHT30;56319;48.920;2.332;2023-04-03T01:58:28;17.72;40.81
69206;SHT30;56319;48.920;2.332;2023-04-03T02:00:54;17.74;40.77
69206;SHT30;56319;48.920;2.332;2023-04-03T02:03:20;17.75;40.75
69206;SHT30;56319;48.920;2.332;2023-04-03T02:05:45;17.72;40.75
69206;SHT30;56319;48.920;2.332;2023-04-03T02:08:11;17.72;40.77
69206;SHT30;56319;48.920;2.332;2023-04-03T02:10:37;17.75;40.74
69206;SHT30;56319;48.920;2.332;2023-04-03T02:13:02;17.74;40.74
69206;SHT30;56319;48.920;2.332;2023-04-03T02:15:28;17.74;40.76
69206;SHT30;56319;48.920;2.332;2023-04-03T02:17:53;17.74;40.75
69206;SHT30;56319;48.920;2.332;2023-04-03T02:20:19;17.72;40.79
69206;SHT30;56319;48.920;2.332;2023-04-03T02:22:45;17.68;40.78
69206;SHT30;56319;48.920;2.332;2023-04-03T02:25:13;17.69;40.78
69206;SHT30;56319;48.920;2.332;2023-04-03T02:27:39;17.71;40.75
69206;SHT30;56319;48.920;2.332;2023-04-03T02:30:05;17.69;40.80
69206;SHT30;56319;48.920;2.332;2023-04-03T02:32:31;17.71;40.80
69206;SHT30;56319;48.920;2.332;2023-04-03T02:34:56;17.68;40.80
69206;SHT30;56319;48.920;2.332;2023-04-03T02:37:22;17.66;40.78
69206;SHT30;56319;48.920;2.332;2023-04-03T02:39:48;17.66;40.73
69206;SHT30;56319;48.920;2.332;2023-04-03T02:42:13;17.66;40.76
69206;SHT30;56319;48.920;2.332;2023-04-03T02:44:39;17.65;40.73
69206;SHT30;56319;48.920;2.332;2023-04-03T02:47:05;17.65;40.76
69206;SHT30;56319;48.920;2.332;2023-04-03T02:49:31;17.66;40.73
69206;SHT30;56319;48.920;2.332;2023-04-03T02:51:57;17.65;40.78
69206;SHT30;56319;48.920;2.332;2023-04-03T02:54:22;17.66;40.76
69206;SHT30;56319;48.920;2.332;2023-04-03T02:56:50;17.65;40.75
69206;SHT30;56319;48.920;2.332;2023-04-03T02:59:16;17.64;40.78
69206;SHT30;56319;48.920;2.332;2023-04-03T03:01:42;17.65;40.74
69206;SHT30;56319;48.920;2.332;2023-04-03T03:04:07;17.61;40.73
69206;SHT30;56319;48.920;2.332;2023-04-03T03:06:33;17.62;40.73
69206;SHT30;56319;48.920;2.332;2023-04-03T03:08:58;17.64;40.74
69206;SHT30;56319;48.920;2.332;2023-04-03T03:11:24;17.59;40.73
69206;SHT30;56319;48.920;2.332;2023-04-03T03:13:50;17.64;40.71
69206;SHT30;56319;48.920;2.332;2023-04-03T03:16:15;17.64;40.69
69206;SHT30;56319;48.920;2.332;2023-04-03T03:18:42;17.58;40.70
69206;SHT30;56319;48.920;2.332;2023-04-03T03:21:09;17.61;40.70
69206;SHT30;56319;48.920;2.332;2023-04-03T03:23:35;17.59;40.67
69206;SHT30;56319;48.920;2.332;2023-04-03T03:26:04;17.58;40.67
69206;SHT30;56319;48.920;2.332;2023-04-03T03:28:31;17.59;40.69
69206;SHT30;56319;48.920;2.332;2023-04-03T03:30:57;17.58;40.62
69206;SHT30;56319;48.920;2.332;2023-04-03T03:33:24;17.57;40.63
69206;SHT30;56319;48.920;2.332;2023-04-03T03:35:51;17.58;40.65
69206;SHT30;56319;48.920;2.332;2023-04-03T03:38:17;17.57;40.65
69206;SHT30;56319;48.920;2.332;2023-04-03T03:40:42;17.59;40.58
69206;SHT30;56319;48.920;2.332;2023-04-03T03:43:08;17.58;40.58
69206;SHT30;56319;48.920;2.332;2023-04-03T03:45:33;17.58;40.58
69206;SHT30;56319;48.920;2.332;2023-04-03T03:47:59;17.55;40.59
69206;SHT30;56319;48.920;2.332;2023-04-03T03:50:25;17.57;40.49
69206;SHT30;56319;48.920;2.332;2023-04-03T03:52:50;17.55;40.52
69206;SHT30;56319;48.920;2.332;2023-04-03T03:55:16;17.55;40.54
69206;SHT30;56319;48.920;2.332;2023-04-03T03:57:41;17.54;40.56
69206;SHT30;56319;48.920;2.332;2023-04-03T04:00:07;17.54;40.48
69206;SHT30;56319;48.920;2.332;2023-04-03T04:02:34;17.52;40.49
69206;SHT30;56319;48.920;2.332;2023-04-03T04:04:59;17.49;40.43
69206;SHT30;56319;48.920;2.332;2023-04-03T04:07:25;17.54;40.39
69206;SHT30;56319;48.920;2.332;2023-04-03T04:09:53;17.52;40.43
69206;SHT30;56319;48.920;2.332;2023-04-03T04:12:19;17.54;40.40
69206;SHT30;56319;48.920;2.332;2023-04-03T04:14:46;17.52;40.40
69206;SHT30;56319;48.920;2.332;2023-04-03T04:17:13;17.49;40.36
69206;SHT30;56319;48.920;2.332;2023-04-03T04:19:38;17.49;40.40
69206;SHT30;56319;48.920;2.332;2023-04-03T04:22:04;17.49;40.34
69206;SHT30;56319;48.920;2.332;2023-04-03T04:24:30;17.51;40.30
69206;SHT30;56319;48.920;2.332;2023-04-03T04:26:55;17.48;40.30
69206;SHT30;56319;48.920;2.332;2023-04-03T04:29:21;17.47;40.26
69206;SHT30;56319;48.920;2.332;2023-04-03T04:31:46;17.48;40.28
69206;SHT30;56319;48.920;2.332;2023-04-03T04:34:12;17.47;40.22
69206;SHT30;56319;48.920;2.332;2023-04-03T04:36:38;17.47;40.18
69206;SHT30;56319;48.920;2.332;2023-04-03T04:39:04;17.44;40.18
69206;SHT30;56319;48.920;2.332;2023-04-03T04:41:31;17.45;40.17
69206;SHT30;56319;48.920;2.332;2023-04-03T04:43:56;17.44;40.12
69206;SHT30;56319;48.920;2.332;2023-04-03T04:46:22;17.47;40.07
69206;SHT30;56319;48.920;2.332;2023-04-03T04:48:48;17.45;40.07
69206;SHT30;56319;48.920;2.332;2023-04-03T04:51:14;17.44;40.04
69206;SHT30;56319;48.920;2.332;2023-04-03T04:53:40;17.44;39.99
69206;SHT30;56319;48.920;2.332;2023-04-03T04:56:05;17.42;40.01
69206;SHT30;56319;48.920;2.332;2023-04-03T04:58:31;17.44;39.96
69206;SHT30;56319;48.920;2.332;2023-04-03T05:01:01;17.41;39.95
69206;SHT30;56319;48.920;2.332;2023-04-03T05:03:27;17.41;39.95
69206;SHT30;56319;48.920;2.332;2023-04-03T05:05:53;17.41;39.94
69206;SHT30;56319;48.920;2.332;2023-04-03T05:08:18;17.41;39.91
69206;SHT30;56319;48.920;2.332;2023-04-03T05:10:46;17.40;39.87
69206;SHT30;56319;48.920;2.332;2023-04-03T05:13:14;17.41;39.90
69206;SHT30;56319;48.920;2.332;2023-04-03T05:15:40;17.40;39.84
69206;SHT30;56319;48.920;2.332;2023-04-03T05:18:05;17.37;39.81
69206;SHT30;56319;48.920;2.332;2023-04-03T05:20:32;17.37;39.77
69206;SHT30;56319;48.920;2.332;2023-04-03T05:22:57;17.40;39.77
69206;SHT30;56319;48.920;2.332;2023-04-03T05:25:23;17.38;39.75
69206;SHT30;56319;48.920;2.332;2023-04-03T05:27:49;17.35;39.72
69206;SHT30;56319;48.920;2.332;2023-04-03T05:30:16;17.37;39.68
69206;SHT30;56319;48.920;2.332;2023-04-03T05:32:41;17.37;39.65
69206;SHT30;56319;48.920;2.332;2023-04-03T05:35:08;17.35;39.61
69206;SHT30;56319;48.920;2.332;2023-04-03T05:37:34;17.35;39.65
69206;SHT30;56319;48.920;2.332;2023-04-03T05:39:59;17.34;39.58
69206;SHT30;56319;48.920;2.332;2023-04-03T05:42:25;17.32;39.52
69206;SHT30;56319;48.920;2.332;2023-04-03T05:44:50;17.34;39.53
69206;SHT30;56319;48.920;2.332;2023-04-03T05:47:17;17.34;39.49
69206;SHT30;56319;48.920;2.332;2023-04-03T05:49:42;17.34;39.46
69206;SHT30;56319;48.920;2.332;2023-04-03T05:52:22;17.35;39.45
69206;SHT30;56319;48.920;2.332;2023-04-03T05:54:48;17.32;39.42
69206;SHT30;56319;48.920;2.332;2023-04-03T05:57:15;17.32;39.34
69206;SHT30;56319;48.920;2.332;2023-04-03T05:59:42;17.31;39.37
69206;SHT30;56319;48.920;2.332;2023-04-03T06:02:12;17.31;39.34
69206;SHT30;56319;48.920;2.332;2023-04-03T06:04:38;17.30;39.30
69206;SHT30;56319;48.920;2.332;2023-04-03T06:07:03;17.30;39.27
69206;SHT30;56319;48.920;2.332;2023-04-03T06:09:30;17.32;39.26
69206;SHT30;56319;48.920;2.332;2023-04-03T06:11:56;17.30;39.23
69206;SHT30;56319;48.920;2.332;2023-04-03T06:14:24;17.28;39.23
69206;SHT30;56319;48.920;2.332;2023-04-03T06:16:50;17.30;39.16
69206;SHT30;56319;48.920;2.332;2023-04-03T06:19:16;17.27;39.19
69206;SHT30;56319;48.920;2.332;2023-04-03T06:21:41;17.30;39.13
69206;SHT30;56319;48.920;2.332;2023-04-03T06:24:07;17.30;39.15
69206;SHT30;56319;48.920;2.332;2023-04-03T06:26:33;17.24;39.14
69206;SHT30;56319;48.920;2.332;2023-04-03T06:28:59;17.28;39.30
69206;SHT30;56319;48.920;2.332;2023-04-03T06:31:25;17.31;39.60
69206;SHT30;56319;48.920;2.332;2023-04-03T06:33:50;17.32;39.90
69206;SHT30;56319;48.920;2.332;2023-04-03T06:36:18;17.37;40.29
69206;SHT30;56319;48.920;2.332;2023-04-03T06:38:46;17.42;40.84
69206;SHT30;56319;48.920;2.332;2023-04-03T06:41:11;17.47;40.96
69206;SHT30;56319;48.920;2.332;2023-04-03T06:43:37;17.55;41.02
69206;SHT30;56319;48.920;2.332;2023-04-03T06:46:03;17.58;41.25
69206;SHT30;56319;48.920;2.332;2023-04-03T06:48:28;17.64;41.32
69206;SHT30;56319;48.920;2.332;2023-04-03T06:50:54;17.74;41.38
69206;SHT30;56319;48.920;2.332;2023-04-03T06:53:20;17.79;41.45
69206;SHT30;56319;48.920;2.332;2023-04-03T06:55:46;17.85;41.53
69206;SHT30;56319;48.920;2.332;2023-04-03T06:58:12;17.93;41.51
69206;SHT30;56319;48.920;2.332;2023-04-03T07:00:39;17.99;41.46
69206;SHT30;56319;48.920;2.332;2023-04-03T07:03:04;18.03;41.46
69206;SHT30;56319;48.920;2.332;2023-04-03T07:05:30;18.10;41.49
69206;SHT30;56319;48.920;2.332;2023-04-03T07:07:56;18.14;41.39
69206;SHT30;56319;48.920;2.332;2023-04-03T07:10:21;18.20;41.45
69206;SHT30;56319;48.920;2.332;2023-04-03T07:12:46;18.26;41.46
69206;SHT30;56319;48.920;2.332;2023-04-03T07:15:12;18.30;41.41
69206;SHT30;56319;48.920;2.332;2023-04-03T07:17:38;18.34;41.43
69206;SHT30;56319;48.920;2.332;2023-04-03T07:20:05;18.38;41.45
69206;SHT30;56319;48.920;2.332;2023-04-03T07:22:30;18.40;41.42
69206;SHT30;56319;48.920;2.332;2023-04-03T07:24:56;18.48;41.50
69206;SHT30;56319;48.920;2.332;2023-04-03T07:27:21;18.49;41.42
69206;SHT30;56319;48.920;2.332;2023-04-03T07:29:47;18.54;41.37
69206;SHT30;56319;48.920;2.332;2023-04-03T07:32:14;18.55;41.38
69206;SHT30;56319;48.920;2.332;2023-04-03T07:34:40;18.56;41.42
69206;SHT30;56319;48.920;2.332;2023-04-03T07:37:05;18.59;41.47
69206;SHT30;56319;48.920;2.332;2023-04-03T07:39:32;18.64;41.38
69206;SHT30;56319;48.920;2.332;2023-04-03T07:41:57;18.66;41.41
69206;SHT30;56319;48.920;2.332;2023-04-03T07:44:23;18.69;40.90
69206;SHT30;56319;48.920;2.332;2023-04-03T07:46:49;18.68;40.85
69206;SHT30;56319;48.920;2.332;2023-04-03T07:49:16;18.69;40.97
69206;SHT30;56319;48.920;2.332;2023-04-03T07:51:44;18.69;41.11
69206;SHT30;56319;48.920;2.332;2023-04-03T07:54:09;18.72;41.11
69206;SHT30;56319;48.920;2.332;2023-04-03T07:56:35;18.75;41.14
69206;SHT30;56319;48.920;2.332;2023-04-03T07:59:01;18.77;41.14
69206;SHT30;56319;48.920;2.332;2023-04-03T08:01:26;18.81;41.16
69206;SHT30;56319;48.920;2.332;2023-04-03T08:03:52;18.83;41.09
69206;SHT30;56319;48.920;2.332;2023-04-03T08:06:17;18.83;40.98
69206;SHT30;56319;48.920;2.332;2023-04-03T08:08:43;18.85;40.84
69206;SHT30;56319;48.920;2.332;2023-04-03T08:11:10;18.85;40.85
69206;SHT30;56319;48.920;2.332;2023-04-03T08:13:35;18.77;40.82
69206;SHT30;56319;48.920;2.332;2023-04-03T08:16:21;18.75;40.90
69206;SHT30;56319;48.920;2.332;2023-04-03T08:18:48;18.73;40.81
69206;SHT30;56319;48.920;2.332;2023-04-03T08:21:14;18.69;40.87
69206;SHT30;56319;48.920;2.332;2023-04-03T08:23:40;18.68;40.76
69206;SHT30;56319;48.920;2.332;2023-04-03T08:26:09;18.64;40.78
69206;SHT30;56319;48.920;2.332;2023-04-03T08:28:35;18.61;40.78
69206;SHT30;56319;48.920;2.332;2023-04-03T08:31:03;18.62;41.04
69206;SHT30;56319;48.920;2.332;2023-04-03T08:33:31;18.62;41.45
69206;SHT30;56319;48.920;2.332;2023-04-03T08:35:57;18.65;41.36
69206;SHT30;56319;48.920;2.332;2023-04-03T08:38:22;18.69;41.36
69206;SHT30;56319;48.920;2.332;2023-04-03T08:41:00;18.71;41.21
69206;SHT30;56319;48.920;2.332;2023-04-03T08:43:38;18.75;41.11
69206;SHT30;56319;48.920;2.332;2023-04-03T08:46:05;18.77;41.11
69206;SHT30;56319;48.920;2.332;2023-04-03T08:48:36;18.85;41.12
69206;SHT30;56319;48.920;2.332;2023-04-03T08:51:12;18.88;41.06
69206;SHT30;56319;48.920;2.332;2023-04-03T08:53:44;18.90;41.07
69206;SHT30;56319;48.920;2.332;2023-04-03T08:56:13;18.95;41.09
69206;SHT30;56319;48.920;2.332;2023-04-03T08:58:47;18.97;41.11
69206;SHT30;56319;48.920;2.332;2023-04-03T09:01:20;19.02;41.04
69206;SHT30;56319;48.920;2.332;2023-04-03T09:03:46;19.03;41.03
69206;SHT30;56319;48.920;2.332;2023-04-03T09:09:12;19.10;40.87
69206;SHT30;56319;48.920;2.332;2023-04-03T09:15:00;19.16;40.78
69206;SHT30;56319;48.920;2.332;2023-04-03T09:20:42;19.20;40.68
69206;SHT30;56319;48.920;2.332;2023-04-03T09:23:18;19.27;40.63
69206;SHT30;56319;48.920;2.332;2023-04-03T09:25:45;19.25;40.63
69206;SHT30;56319;48.920;2.332;2023-04-03T09:28:11;19.30;40.57
69206;SHT30;56319;48.920;2.332;2023-04-03T09:30:37;19.30;40.46
69206;SHT30;56319;48.920;2.332;2023-04-03T09:33:03;19.34;40.28
69206;SHT30;56319;48.920;2.332;2023-04-03T09:35:32;19.35;40.25
69206;SHT30;56319;48.920;2.332;2023-04-03T09:38:02;19.34;40.28
69206;SHT30;56319;48.920;2.332;2023-04-03T09:40:43;19.36;40.12
69206;SHT30;56319;48.920;2.332;2023-04-03T09:43:30;19.41;40.19
69206;SHT30;56319;48.920;2.332;2023-04-03T09:45:56;19.39;40.03
69206;SHT30;56319;48.920;2.332;2023-04-03T09:48:51;19.36;39.91
69206;SHT30;56319;48.920;2.332;2023-04-03T09:51:17;19.35;39.85
69206;SHT30;56319;48.920;2.332;2023-04-03T09:53:44;19.32;39.77
69206;SHT30;56319;48.920;2.332;2023-04-03T09:56:29;19.27;39.73
69206;SHT30;56319;48.920;2.332;2023-04-03T09:59:15;19.24;39.78
69206;SHT30;56319;48.920;2.332;2023-04-03T10:01:43;19.23;39.73
69206;SHT30;56319;48.920;2.332;2023-04-03T10:04:22;19.18;39.66
69206;SHT30;56319;48.920;2.332;2023-04-03T10:06:53;19.17;39.72
69206;SHT30;56319;48.920;2.332;2023-04-03T10:09:32;19.13;39.62
69206;SHT30;56319;48.920;2.332;2023-04-03T10:12:18;19.10;39.61
69206;SHT30;56319;48.920;2.332;2023-04-03T10:15:10;19.06;39.52
69206;SHT30;56319;48.920;2.332;2023-04-03T10:17:58;19.03;39.52
69206;SHT30;56319;48.920;2.332;2023-04-03T10:20:46;18.99;39.47
69206;SHT30;56319;48.920;2.332;2023-04-03T10:23:21;18.95;39.41
69206;SHT30;56319;48.920;2.332;2023-04-03T10:28:55;18.89;39.43
69206;SHT30;56319;48.920;2.332;2023-04-03T10:31:32;18.88;39.37
69206;SHT30;56319;48.920;2.332;2023-04-03T10:34:11;18.86;39.34
69206;SHT30;56319;48.920;2.332;2023-04-03T10:36:47;18.83;39.30
69206;SHT30;56319;48.920;2.332;2023-04-03T10:39:43;18.83;39.27
69206;SHT30;56319;48.920;2.332;2023-04-03T10:42:18;18.77;39.21
69206;SHT30;56319;48.920;2.332;2023-04-03T10:53:44;18.92;39.05
69206;SHT30;56319;48.920;2.332;2023-04-03T10:56:27;18.99;39.01
69206;SHT30;56319;48.920;2.332;2023-04-03T10:59:03;19.04;38.91
69206;SHT30;56319;48.920;2.332;2023-04-03T11:01:37;19.13;38.81
69206;SHT30;56319;48.920;2.332;2023-04-03T11:04:05;19.18;38.73
69206;SHT30;56319;48.920;2.332;2023-04-03T11:06:36;19.28;38.64
69206;SHT30;56319;48.920;2.332;2023-04-03T11:09:11;19.38;38.49
69206;SHT30;56319;48.920;2.332;2023-04-03T11:11:42;19.45;38.40
69206;SHT30;56319;48.920;2.332;2023-04-03T11:14:30;19.58;38.24
69206;SHT30;56319;48.920;2.332;2023-04-03T11:17:14;19.69;38.11
69206;SHT30;56319;48.920;2.332;2023-04-03T11:22:42;19.93;37.75
69206;SHT30;56319;48.920;2.332;2023-04-03T11:25:21;20.04;37.65
69206;SHT30;56319;48.920;2.332;2023-04-03T11:28:11;20.17;37.44
69206;SHT30;56319;48.920;2.332;2023-04-03T11:30:46;20.28;37.23
69206;SHT30;56319;48.920;2.332;2023-04-03T11:36:41;20.53;37.37
69206;SHT30;56319;48.920;2.332;2023-04-03T11:39:18;20.68;37.52
69206;SHT30;56319;48.920;2.332;2023-04-03T11:41:47;20.79;37.52
69206;SHT30;56319;48.920;2.332;2023-04-03T11:44:34;20.92;37.57
69206;SHT30;56319;48.920;2.332;2023-04-03T11:47:02;21.00;37.53
69206;SHT30;56319;48.920;2.332;2023-04-03T11:52:55;21.24;37.31
69206;SHT30;56319;48.920;2.332;2023-04-03T11:55:42;21.35;37.25
69206;SHT30;56319;48.920;2.332;2023-04-03T11:58:14;21.41;37.14
69206;SHT30;56319;48.920;2.332;2023-04-03T12:01:04;21.52;37.05
69206;SHT30;56319;48.920;2.332;2023-04-03T12:03:33;21.58;37.05
69206;SHT30;56319;48.920;2.332;2023-04-03T12:09:28;21.82;36.81
69206;SHT30;56319;48.920;2.332;2023-04-03T12:11:56;21.89;36.72
69206;SHT30;56319;48.920;2.332;2023-04-03T12:14:23;21.99;36.63
69206;SHT30;56319;48.920;2.332;2023-04-03T12:16:52;22.07;36.61
69206;SHT30;56319;48.920;2.332;2023-04-03T12:19:39;22.13;36.49
69206;SHT30;56319;48.920;2.332;2023-04-03T12:22:13;22.22;36.19
69206;SHT30;56319;48.920;2.332;2023-04-03T12:24:42;22.25;36.10
69206;SHT30;56319;48.920;2.332;2023-04-03T12:27:28;22.31;35.97
69206;SHT30;56319;48.920;2.332;2023-04-03T12:30:04;22.38;35.81
69206;SHT30;56319;48.920;2.332;2023-04-03T12:32:56;22.45;35.75
69206;SHT30;56319;48.920;2.332;2023-04-03T12:35:36;22.49;35.67
69206;SHT30;56319;48.920;2.332;2023-04-03T12:38:22;22.55;35.45
69206;SHT30;56319;48.920;2.332;2023-04-03T12:47:23;22.72;35.11
69206;SHT30;56319;48.920;2.332;2023-04-03T12:49:50;22.73;35.01
69206;SHT30;56319;48.920;2.332;2023-04-03T12:52:26;22.75;34.93
69206;SHT30;56319;48.920;2.332;2023-04-03T12:54:56;22.79;34.90
69206;SHT30;56319;48.920;2.332;2023-04-03T12:57:25;22.82;34.86
69206;SHT30;56319;48.920;2.332;2023-04-03T12:59:52;22.85;34.83
69206;SHT30;56319;48.920;2.332;2023-04-03T13:02:31;22.89;34.76
69206;SHT30;56319;48.920;2.332;2023-04-03T13:05:04;22.89;34.63
69206;SHT30;56319;48.920;2.332;2023-04-03T13:07:33;22.92;34.59
69206;SHT30;56319;48.920;2.332;2023-04-03T13:10:03;22.97;34.71
69206;SHT30;56319;48.920;2.332;2023-04-03T13:12:30;23.00;34.32
69206;SHT30;56319;48.920;2.332;2023-04-03T13:15:00;23.06;34.03
69206;SHT30;56319;48.920;2.332;2023-04-03T13:17:27;23.13;33.91
69206;SHT30;56319;48.920;2.332;2023-04-03T13:19:53;23.17;33.85
69206;SHT30;56319;48.920;2.332;2023-04-03T13:25:14;23.33;33.73
69206;SHT30;56319;48.920;2.332;2023-04-03T13:27:41;23.37;33.70
69206;SHT30;56319;48.920;2.332;2023-04-03T13:30:31;23.45;33.70
69206;SHT30;56319;48.920;2.332;2023-04-03T13:33:00;23.50;33.73
69206;SHT30;56319;48.920;2.332;2023-04-03T13:35:37;23.57;33.56
69206;SHT30;56319;48.920;2.332;2023-04-03T13:38:21;23.65;33.61
69206;SHT30;56319;48.920;2.332;2023-04-03T13:40:51;23.70;33.64
69206;SHT30;56319;48.920;2.332;2023-04-03T13:43:21;23.76;33.61
69206;SHT30;56319;48.920;2.332;2023-04-03T13:48:54;23.90;33.63
69206;SHT30;56319;48.920;2.332;2023-04-03T13:51:25;23.95;33.59
69206;SHT30;56319;48.920;2.332;2023-04-03T13:53:55;23.99;33.50
69206;SHT30;56319;48.920;2.332;2023-04-03T13:56:37;24.02;33.59
69206;SHT30;56319;48.920;2.332;2023-04-03T13:59:22;24.09;33.73
69206;SHT30;56319;48.920;2.332;2023-04-03T14:02:12;24.17;33.75
69206;SHT30;56319;48.920;2.332;2023-04-03T14:04:50;24.18;33.50
69206;SHT30;56319;48.920;2.332;2023-04-03T14:07:16;24.24;33.52
69206;SHT30;56319;48.920;2.332;2023-04-03T14:09:43;24.28;33.76
69206;SHT30;56319;48.920;2.332;2023-04-03T14:12:15;24.34;33.56
69206;SHT30;56319;48.920;2.332;2023-04-03T14:14:42;24.40;33.93
69206;SHT30;56319;48.920;2.332;2023-04-03T14:17:27;24.47;33.27
69206;SHT30;56319;48.920;2.332;2023-04-03T14:19:56;24.47;33.26
69206;SHT30;56319;48.920;2.332;2023-04-03T14:22:29;24.51;33.20
69206;SHT30;56319;48.920;2.332;2023-04-03T14:24:55;24.52;33.12
69206;SHT30;56319;48.920;2.332;2023-04-03T14:27:25;24.52;33.12
69206;SHT30;56319;48.920;2.332;2023-04-03T14:29:52;24.57;33.03
69206;SHT30;56319;48.920;2.332;2023-04-03T14:32:20;24.57;32.96
69206;SHT30;56319;48.920;2.332;2023-04-03T14:34:46;24.59;32.89
69206;SHT30;56319;48.920;2.332;2023-04-03T14:37:15;24.62;32.87
69206;SHT30;56319;48.920;2.332;2023-04-03T14:39:42;24.64;32.71
69206;SHT30;56319;48.920;2.332;2023-04-03T14:42:13;24.66;32.78
69206;SHT30;56319;48.920;2.332;2023-04-03T14:44:39;24.71;32.63
69206;SHT30;56319;48.920;2.332;2023-04-03T14:47:10;24.72;32.60
69206;SHT30;56319;48.920;2.332;2023-04-03T14:49:35;24.73;32.36
69206;SHT30;56319;48.920;2.332;2023-04-03T14:52:01;24.73;32.07
69206;SHT30;56319;48.920;2.332;2023-04-03T14:54:27;24.73;31.73
69206;SHT30;56319;48.920;2.332;2023-04-03T14:56:55;24.75;31.43
69206;SHT30;56319;48.920;2.332;2023-04-03T14:59:22;24.72;31.23
69206;SHT30;56319;48.920;2.332;2023-04-03T15:01:48;24.69;31.31
69206;SHT30;56319;48.920;2.332;2023-04-03T15:04:16;24.66;31.31
69206;SHT30;56319;48.920;2.332;2023-04-03T15:06:42;24.62;31.20
69206;SHT30;56319;48.920;2.332;2023-04-03T15:09:19;24.57;31.01
69206;SHT30;56319;48.920;2.332;2023-04-03T15:11:46;24.51;30.99
69206;SHT30;56319;48.920;2.332;2023-04-03T15:14:11;24.45;30.78
69206;SHT30;56319;48.920;2.332;2023-04-03T15:16:37;24.40;30.64
69206;SHT30;56319;48.920;2.332;2023-04-03T15:19:02;24.34;30.55
69206;SHT30;56319;48.920;2.332;2023-04-03T15:21:28;24.24;30.46
69206;SHT30;56319;48.920;2.332;2023-04-03T15:23:53;24.17;30.39
69206;SHT30;56319;48.920;2.332;2023-04-03T15:26:19;24.13;30.40
69206;SHT30;56319;48.920;2.332;2023-04-03T15:28:46;24.06;30.43
69206;SHT30;56319;48.920;2.332;2023-04-03T15:31:11;24.02;30.41
69206;SHT30;56319;48.920;2.332;2023-04-03T15:33:37;23.95;30.38
69206;SHT30;56319;48.920;2.332;2023-04-03T15:36:04;23.90;30.42
69206;SHT30;56319;48.920;2.332;2023-04-03T15:38:30;23.83;30.46
69206;SHT30;56319;48.920;2.332;2023-04-03T15:40:56;23.79;30.40
69206;SHT30;56319;48.920;2.332;2023-04-03T15:43:22;23.72;30.38
69206;SHT30;56319;48.920;2.332;2023-04-03T15:45:48;23.66;30.42
69206;SHT30;56319;48.920;2.332;2023-04-03T15:48:15;23.63;30.49
69206;SHT30;56319;48.920;2.332;2023-04-03T15:50:41;23.58;30.51
69206;SHT30;56319;48.920;2.332;2023-04-03T15:53:07;23.57;30.54
69206;SHT30;56319;48.920;2.332;2023-04-03T15:55:35;23.54;30.58
69206;SHT30;56319;48.920;2.332;2023-04-03T15:58:01;23.52;30.61
69206;SHT30;56319;48.920;2.332;2023-04-03T16:00:28;23.50;30.64
69206;SHT30;56319;48.920;2.332;2023-04-03T16:02:58;23.48;30.70
69206;SHT30;56319;48.920;2.332;2023-04-03T16:05:24;23.47;30.74
69206;SHT30;56319;48.920;2.332;2023-04-03T16:07:51;23.48;30.76
69206;SHT30;56319;48.920;2.332;2023-04-03T16:10:17;23.47;30.77
69206;SHT30;56319;48.920;2.332;2023-04-03T16:12:43;23.50;30.74
69206;SHT30;56319;48.920;2.332;2023-04-03T16:15:11;23.47;30.79
69206;SHT30;56319;48.920;2.332;2023-04-03T16:17:38;23.47;30.80
69206;SHT30;56319;48.920;2.332;2023-04-03T16:20:07;23.50;30.83
69206;SHT30;56319;48.920;2.332;2023-04-03T16:22:33;23.51;30.76
69206;SHT30;56319;48.920;2.332;2023-04-03T16:24:59;23.55;30.83
69206;SHT30;56319;48.920;2.332;2023-04-03T16:27:24;23.52;30.85
69206;SHT30;56319;48.920;2.332;2023-04-03T16:29:54;23.61;30.85
69206;SHT30;56319;48.920;2.332;2023-04-03T16:32:21;23.61;30.84